Aeroporto :
LOGIN :

Iscrizione | Disclaimer

   EN    FR    IT 

 










Sommario :    VFR   VFR Marginale   IFR   IFR Intensivo   IFR Molto Intensivo
Visibilità : 
Base nubi : 
>= 8 km
>= 3000ft
5 / 8 km
1000 / 3000 ft
1500m / 5 km
500 / 1000 ft
800 / 1500m
200 / 500 ft
< 800m
< 200 ft
Simboli :   Temporali  Nebbia  Neve Forte  Precipitazioni Forti  Vento > 20 kt
SIGMETs :   Varie  Temporali  Ghiacco  Turbolenza  Onda orograficha  Ceneri Vulcaniche







- Altitudine del aeroporto : 12 ft
- Codice IATA : NCE
- Carte del aeroporto


LFMN - Nice

ULTIMO METAR :
  • 190318Z 33010KT 9999 FEW050 06/M01 Q1009 NOSIG

METARs OBSOLETI :
  • 190230Z 34010KT 320V020 9999 FEW050 06/M00 Q1010 NOSIG
  • 190200Z 33011KT 9999 FEW050 06/M00 Q1010 NOSIG
  • 190130Z 33010KT 9999 FEW060 06/M00 Q1010 NOSIG
  • 190100Z 33009KT 9999 FEW060 07/M00 Q1010 NOSIG
  • 190030Z 34010KT 9999 FEW060 07/M00 Q1011 NOSIG

TAF TAF LFMN
Valido dal 19 a 03 ore il 20 a 09 ore UTC


190200Z 1903/2009 34010KT CAVOK
BECMG 1907/1909 06015KT FEW040TCU
PROB30
TEMPO 1909/1915 SHRA BKN015
TEMPO 1910/1921 08020G35KT
BECMG 1918/1921 CAVOK
BECMG 1921/1923 01012KT
ATIS : +33 4 93 17 21 16
Nessun NOTAM noto per questo aeroporto.
2 SIGMETs conosciuti per la FIR Marseille (LFMM) :
 
Turbolenza severa
LFMM SIGMET 2 VALID 190300/190700 LFPW
LFMM MARSEILLE FIR/UIR SEV TURB FCST WI N4500 E00245 - N4615 E00300 - N4630 E00345 - N4600 E00545 - N4500 E00245 FL200/270 MOV SE 10KT NC=
Temporali affogati
LFMM SIGMET 1 VALID 190300/190500 LFPW
LFMM MARSEILLE FIR/UIR EMBD TS OBS WI N3900 E00630 - N3900 E00430 - N3930 E00430 - N3915 E00615 - N3900 E00630 TOP FL350 MOV NE 20KT NC=



MetMap, La meteo Aeronautica in un colpo d'occhio ! - Copyright ORBIFLY Dicembre 2007 - Disclaimer

ORBIFLY MET'MAP TEAM :

Programmazione e sviluppo : Alexandra Zaïnal
Concezione e sviluppo : Baudouin d'Aumeries
Co-Programmazione e sviluppo : Marc-Olivier Méhu
Supporto tecnico e logistico : Manuel Goepfert
Aiuto per la traduzione : Arnaldo La Scala

Contatto : metmap@orbifly.com




FONTI E CREDITI :

   NOAA